Angostura, New Mexico
Current Conditions -  °F | °C
As of 3:15 AM on Saturday 20 Dec 2014 (Local Time) from KSKX Reporting Station
Clear Clear  
Wind Chill:   Ceiling: Unl
Heat Index: 10°   Visibility: 10mi
Dew Point:   Wind: 6mph
Humidity: 92%   Direction: 330°NNW
Pressure: 30.18"   Gusts: NA
Location:  36.1892°N, 105.688°W
Report Text: KSKX 201015Z AUTO 33005KT 10SM CLR M12/M13 A3018 RMK AO1
Loading
Personal Weather Stations






























Interactive Weather Map New forecast layout! Learn more

10-Day Weather Forecast

Advertisements
Track Severe Weather on mobile